Time;durP1;ratioP1;P1;durP2;ratioP2;P2;SDS_P1;SDS_P2;PMS_P1;PMS_P2;Temp;Humidity;BMP_temperature;BMP_pressure;BME280_temperature;BME280_humidity;BME280_pressure;Samples;Min_cycle;Max_cycle;Signal;HPM_P1;HPM_P2
2022/12/21 00:00:22;;;;;;;6.15;4.07;;;;;;;16.28;55.92;97641.72;4992331;28;20031;-32
2022/12/21 00:02:48;;;;;;;5.05;4.07;;;;;;;16.36;55.79;97645.00;4992337;28;20437;-32
2022/12/21 00:05:13;;;;;;;6.35;4.38;;;;;;;16.28;56.00;97640.94;4992186;28;20037;-32
2022/12/21 00:07:39;;;;;;;5.25;4.20;;;;;;;16.29;55.99;97635.06;4990025;28;20049;-32
2022/12/21 00:10:05;;;;;;;5.93;4.18;;;;;;;16.28;56.02;97636.25;4992379;28;20022;-32
2022/12/21 00:12:30;;;;;;;5.70;4.28;;;;;;;16.34;55.90;97634.50;4991993;28;20053;-32
2022/12/21 00:14:56;;;;;;;6.03;4.40;;;;;;;16.30;55.95;97635.81;4992189;28;20576;-32
2022/12/21 00:17:22;;;;;;;6.30;4.60;;;;;;;16.36;55.82;97634.84;4991898;28;20026;-32
2022/12/21 00:19:48;;;;;;;5.55;4.00;;;;;;;16.33;55.75;97634.94;4991616;28;20027;-32
2022/12/21 00:22:13;;;;;;;6.53;4.10;;;;;;;16.34;55.80;97628.25;4991674;28;20145;-32
2022/12/21 00:24:38;;;;;;;5.03;3.75;;;;;;;16.24;55.96;97632.06;4992130;28;20120;-32
2022/12/21 00:27:04;;;;;;;5.07;3.78;;;;;;;16.29;55.97;97632.31;4991831;28;20030;-32
2022/12/21 00:29:30;;;;;;;6.03;3.88;;;;;;;16.29;56.02;97628.81;4990185;28;20100;-32
2022/12/21 00:31:56;;;;;;;5.05;4.07;;;;;;;16.31;55.86;97627.19;5001230;28;20132;-32
2022/12/21 00:34:21;;;;;;;4.70;3.75;;;;;;;16.30;55.88;97628.38;5011219;28;20026;-32
2022/12/21 00:36:49;;;;;;;4.63;3.55;;;;;;;16.35;55.77;97632.53;5011012;28;20043;-32
2022/12/21 00:39:15;;;;;;;5.35;3.88;;;;;;;16.31;55.44;97621.69;5011152;28;20131;-32
2022/12/21 00:41:41;;;;;;;4.35;3.60;;;;;;;16.33;55.58;97618.50;5013813;28;20036;-32
2022/12/21 00:44:08;;;;;;;4.35;3.47;;;;;;;16.31;55.64;97631.88;5027326;28;20029;-32
2022/12/21 00:46:34;;;;;;;5.40;3.50;;;;;;;16.28;55.47;97632.75;5016037;28;20529;-32
2022/12/21 00:49:05;;;;;;;4.30;3.63;;;;;;;16.29;55.73;97626.06;5015189;28;20021;-32
2022/12/21 00:51:33;;;;;;;3.95;3.15;;;;;;;16.26;55.73;97630.44;5014540;28;20037;-32
2022/12/21 00:54:00;;;;;;;4.05;3.00;;;;;;;16.25;55.74;97623.44;5014826;28;20056;-32
2022/12/21 00:56:26;;;;;;;5.15;3.53;;;;;;;16.25;55.63;97639.06;5015016;28;20022;-32
2022/12/21 00:58:52;;;;;;;4.88;3.40;;;;;;;16.29;55.76;97637.03;5014861;28;20032;-32
2022/12/21 01:01:22;;;;;;;3.80;3.25;;;;;;;16.25;55.84;97637.13;4997362;28;20049;-32
2022/12/21 01:03:48;;;;;;;3.42;3.10;;;;;;;16.27;55.49;97640.19;5014710;28;20064;-32
2022/12/21 01:06:18;;;;;;;4.50;3.40;;;;;;;16.29;55.57;97642.50;4995120;28;20045;-32
2022/12/21 01:08:44;;;;;;;3.67;2.78;;;;;;;16.21;55.85;97633.69;5014537;28;20029;-32
2022/12/21 01:11:12;;;;;;;3.65;2.75;;;;;;;16.29;55.52;97635.06;5014784;28;20053;-32
2022/12/21 01:13:39;;;;;;;3.40;3.10;;;;;;;16.23;55.72;97636.78;5014655;28;20025;-32
2022/12/21 01:16:17;;;;;;;3.72;2.80;;;;;;;16.28;55.57;97635.47;5014647;28;20028;-32
2022/12/21 01:18:43;;;;;;;3.05;2.70;;;;;;;16.25;55.63;97630.88;5014546;28;20041;-32
2022/12/21 01:21:21;;;;;;;4.63;2.88;;;;;;;16.19;55.87;97635.34;5016245;28;20063;-32
2022/12/21 01:23:48;;;;;;;4.00;2.90;;;;;;;16.16;55.87;97626.03;5012522;28;20038;-32
2022/12/21 01:26:14;;;;;;;3.75;2.80;;;;;;;16.25;55.60;97626.16;5014663;28;20028;-32
2022/12/21 01:28:40;;;;;;;3.72;2.72;;;;;;;16.12;56.01;97628.88;5014282;28;20026;-32
2022/12/21 01:31:06;;;;;;;3.75;2.88;;;;;;;16.23;55.80;97630.53;5016458;28;20081;-32
2022/12/21 01:33:31;;;;;;;3.85;2.75;;;;;;;16.16;55.63;97626.81;5016318;28;20045;-32
2022/12/21 01:35:57;;;;;;;4.68;2.88;;;;;;;16.25;55.57;97628.13;5016427;28;20034;-32
2022/12/21 01:38:22;;;;;;;3.38;2.80;;;;;;;16.24;55.67;97638.31;5016185;28;20025;-32
2022/12/21 01:40:48;;;;;;;3.47;3.17;;;;;;;16.24;55.51;97632.06;5016478;28;20033;-32
2022/12/21 01:43:37;;;;;;;3.30;2.80;;;;;;;16.20;55.59;97631.38;5011916;28;20371;-32
2022/12/21 01:46:03;;;;;;;3.72;3.30;;;;;;;16.15;55.80;97629.97;5010643;28;20501;-32
2022/12/21 01:48:36;;;;;;;3.83;3.08;;;;;;;16.19;55.63;97635.34;5016252;28;20510;-32
2022/12/21 01:51:05;;;;;;;3.85;2.88;;;;;;;16.15;55.59;97621.75;5016028;28;20030;-32
2022/12/21 01:53:48;;;;;;;4.10;2.95;;;;;;;16.15;55.64;97617.06;5014946;28;20367;-32
2022/12/21 01:56:19;;;;;;;4.28;3.35;;;;;;;16.12;55.82;97615.19;5016309;28;20061;-32
2022/12/21 01:58:45;;;;;;;4.40;3.10;;;;;;;16.16;55.66;97613.13;5016021;28;20037;-32
2022/12/21 02:01:10;;;;;;;4.65;3.60;;;;;;;16.15;55.77;97608.09;5015856;28;20026;-32
2022/12/21 02:03:45;;;;;;;5.70;3.72;;;;;;;16.11;55.80;97599.97;5016095;28;20040;-32
2022/12/21 02:06:17;;;;;;;5.95;3.85;;;;;;;16.16;55.79;97596.69;5016055;28;20390;-32
2022/12/21 02:08:42;;;;;;;5.70;3.90;;;;;;;16.13;55.55;97592.09;5015706;28;20026;-32
2022/12/21 02:11:09;;;;;;;5.30;3.97;;;;;;;16.10;55.77;97589.44;5015920;28;20106;-32
2022/12/21 02:13:35;;;;;;;5.63;3.95;;;;;;;16.16;55.63;97593.19;5015605;28;20101;-32
2022/12/21 02:16:13;;;;;;;5.40;4.28;;;;;;;16.15;55.62;97584.22;5015680;28;20041;-32
2022/12/21 02:19:16;;;;;;;5.70;4.22;;;;;;;16.12;55.83;97581.56;5015475;28;20068;-32
2022/12/21 02:21:44;;;;;;;;;;;;;;;16.12;55.82;97585.09;5015241;28;20029;-32
2022/12/21 02:24:18;;;;;;;5.07;4.38;;;;;;;16.13;55.84;97586.63;5008085;28;19909;-32
2022/12/21 02:27:07;;;;;;;7.03;4.38;;;;;;;16.11;55.85;97590.97;4993752;28;20422;-32
2022/12/21 02:30:03;;;;;;;5.43;4.55;;;;;;;16.13;55.68;97583.88;5015800;28;20386;-32
2022/12/21 02:32:48;;;;;;;5.65;4.30;;;;;;;16.11;55.76;97580.81;5005222;28;20046;-32
2022/12/21 02:35:28;;;;;;;6.93;5.15;;;;;;;16.06;55.88;97583.31;5015224;28;20068;-32
2022/12/21 02:38:12;;;;;;;6.53;4.93;;;;;;;16.08;55.80;97578.16;5014329;28;20139;-32
2022/12/21 02:41:15;;;;;;;6.10;4.72;;;;;;;16.09;55.73;97572.25;5005555;28;20037;-32
2022/12/21 02:44:15;;;;;;;6.65;4.93;;;;;;;16.07;55.87;97574.66;5004122;28;20076;-32
2022/12/21 02:47:12;;;;;;;10.52;4.90;;;;;;;16.06;55.86;97575.13;4997314;28;20029;-32
2022/12/21 02:49:52;;;;;;;6.85;4.93;;;;;;;16.05;55.87;97574.34;5015006;28;20022;-32
2022/12/21 02:52:36;;;;;;;6.18;4.57;;;;;;;16.05;55.84;97573.59;5015174;28;20022;-32
2022/12/21 02:55:03;;;;;;;6.55;4.50;;;;;;;16.06;55.60;97569.66;5004128;28;20444;-32
2022/12/21 02:57:34;;;;;;;6.38;4.85;;;;;;;16.01;55.94;97565.47;5014837;28;20025;-32
2022/12/21 03:00:02;;;;;;;6.70;4.93;;;;;;;16.03;55.73;97562.28;5014860;28;20030;-32
2022/12/21 03:02:47;;;;;;;6.47;4.82;;;;;;;16.07;55.58;97560.25;4997260;28;20392;-32
2022/12/21 03:05:45;;;;;;;6.88;5.05;;;;;;;16.04;55.60;97559.13;5007492;28;20044;-32
2022/12/21 03:08:31;;;;;;;6.57;5.07;;;;;;;16.00;55.85;97557.69;4995630;28;20021;-32
2022/12/21 03:11:02;;;;;;;7.50;5.25;;;;;;;16.02;55.65;97550.59;5014674;28;20454;-32
2022/12/21 03:13:48;;;;;;;8.48;5.65;;;;;;;16.03;55.68;97548.63;5015096;28;20026;-32
2022/12/21 03:16:26;;;;;;;7.55;5.30;;;;;;;16.04;55.55;97545.44;5025169;28;20018;-32
2022/12/21 03:19:03;;;;;;;10.07;6.00;;;;;;;16.03;55.57;97545.88;5014457;28;20109;-32
2022/12/21 03:21:47;;;;;;;8.82;6.00;;;;;;;16.03;55.52;97546.66;5014380;28;20034;-32
2022/12/21 03:24:28;;;;;;;7.75;5.40;;;;;;;15.96;55.69;97546.06;5002946;28;20382;-32
2022/12/21 03:26:58;;;;;;;6.75;5.50;;;;;;;15.97;55.60;97542.91;5014563;28;20026;-32
2022/12/21 03:29:29;;;;;;;7.35;5.53;;;;;;;16.01;55.49;97542.81;5012452;28;20022;-32
2022/12/21 03:32:02;;;;;;;7.10;5.32;;;;;;;15.97;55.63;97544.88;5012017;28;20104;-32
2022/12/21 03:34:36;;;;;;;7.10;5.20;;;;;;;16.00;55.47;97544.78;5002379;28;20433;-32
2022/12/21 03:37:07;;;;;;;6.70;5.35;;;;;;;15.97;55.66;97551.09;5001266;28;20033;-32
2022/12/21 03:39:37;;;;;;;6.78;6.07;;;;;;;15.96;55.54;97538.63;5001181;28;20027;-32
2022/12/21 03:42:18;;;;;;;7.38;5.63;;;;;;;15.93;55.80;97539.53;5014124;28;20109;-32
2022/12/21 03:44:53;;;;;;;7.80;5.43;;;;;;;15.96;55.58;97538.63;5014022;28;20112;-32
2022/12/21 03:47:28;;;;;;;6.75;5.45;;;;;;;15.89;55.71;97527.91;5014343;28;20022;-32
2022/12/21 03:49:59;;;;;;;7.88;5.95;;;;;;;15.95;55.45;97520.69;5014006;28;20014;-32
2022/12/21 03:52:36;;;;;;;8.38;6.30;;;;;;;15.94;55.71;97521.91;5014147;28;20057;-32
2022/12/21 03:55:05;;;;;;;8.02;5.60;;;;;;;15.88;55.61;97515.44;4996396;28;20378;-32
2022/12/21 03:57:32;;;;;;;8.90;5.97;;;;;;;15.92;55.53;97515.34;5013661;28;20029;-32
2022/12/21 04:00:00;;;;;;;8.45;6.65;;;;;;;15.95;55.57;97523.41;5013965;28;20052;-32
2022/12/21 04:02:57;;;;;;;8.38;6.47;;;;;;;15.87;55.82;97522.09;5013960;28;20030;-32
2022/12/21 04:05:30;;;;;;;12.23;6.85;;;;;;;15.93;55.32;97512.16;5013813;28;20497;-32
2022/12/21 04:07:56;;;;;;;9.18;6.75;;;;;;;15.94;55.50;97510.19;5013798;28;20032;-32
2022/12/21 04:10:24;;;;;;;8.55;6.55;;;;;;;15.90;55.54;97509.53;5013561;28;20060;-32
2022/12/21 04:12:50;;;;;;;9.20;6.65;;;;;;;15.92;55.57;97501.66;5013710;28;20075;-32
2022/12/21 04:15:23;;;;;;;11.55;7.05;;;;;;;15.91;55.67;97506.34;5012585;28;20413;-32
2022/12/21 04:17:49;;;;;;;;;;;;;;;15.87;55.62;97504.91;5014046;28;20057;-32
2022/12/21 04:20:22;;;;;;;10.70;7.07;;;;;;;15.89;55.66;97505.25;5013434;28;19921;-32
2022/12/21 04:28:17;;;;;;;11.23;8.02;;;;;;;15.88;55.59;97499.00;5013885;28;20040;-32
2022/12/21 04:30:44;;;;;;;12.20;7.47;;;;;;;15.89;55.44;97497.81;5013514;28;20445;-32
2022/12/21 04:33:12;;;;;;;12.68;8.18;;;;;;;15.83;55.83;97505.00;5013520;28;20451;-32
2022/12/21 04:37:30;;;;;;;12.45;7.50;;;;;;;15.92;55.42;97496.94;5013353;28;20026;-32
2022/12/21 04:38:25;;;;;;;10.48;7.57;;;;;;;15.87;55.42;97493.97;5013242;28;20029;-32
2022/12/21 04:40:54;;;;;;;13.90;7.85;;;;;;;15.86;55.57;97490.47;5013353;28;20030;-32
2022/12/21 04:43:21;;;;;;;15.00;8.90;;;;;;;15.89;55.58;97497.81;5013319;28;20493;-32
2022/12/21 04:45:47;;;;;;;11.25;7.55;;;;;;;15.82;55.68;97497.25;5013297;28;20029;-32
2022/12/21 04:48:12;;;;;;;11.93;7.65;;;;;;;15.85;55.52;97497.13;5013269;28;20030;-32
2022/12/21 04:50:39;;;;;;;13.18;8.45;;;;;;;15.85;55.57;97491.66;5013550;28;20045;-32
2022/12/21 04:53:04;;;;;;;11.77;8.13;;;;;;;15.86;55.38;97492.44;5013096;28;20037;-32
2022/12/21 04:55:30;;;;;;;11.30;8.18;;;;;;;15.88;55.30;97490.81;5013491;28;20029;-32
2022/12/21 04:57:55;;;;;;;11.60;8.38;;;;;;;15.87;55.37;97481.06;5013246;28;20022;-32
2022/12/21 05:00:21;;;;;;;13.15;9.07;;;;;;;15.84;55.49;97476.47;5013418;28;20029;-32
2022/12/21 05:02:46;;;;;;;11.00;7.90;;;;;;;15.91;55.22;97494.66;5013063;28;20156;-32
2022/12/21 05:05:12;;;;;;;12.88;8.55;;;;;;;15.88;55.24;97485.34;5013044;28;20042;-32
2022/12/21 05:07:37;;;;;;;12.45;8.45;;;;;;;15.89;55.40;97475.16;5013174;28;20026;-32
2022/12/21 05:10:03;;;;;;;11.32;8.32;;;;;;;15.82;55.42;97491.78;5013388;28;20025;-32
2022/12/21 05:12:29;;;;;;;11.85;8.35;;;;;;;15.75;55.49;97481.81;5012880;28;20025;-32
2022/12/21 05:14:55;;;;;;;13.25;8.98;;;;;;;15.75;55.43;97477.09;5012904;28;20050;-32
2022/12/21 05:17:21;;;;;;;12.38;8.75;;;;;;;15.76;55.53;97486.06;5013126;28;20018;-32
2022/12/21 05:19:47;;;;;;;13.05;8.65;;;;;;;15.79;55.45;97482.47;5012915;28;20061;-32
2022/12/21 05:22:18;;;;;;;12.73;9.27;;;;;;;15.72;55.56;97477.19;5013086;28;20022;-32
2022/12/21 05:24:44;;;;;;;13.68;9.32;;;;;;;15.73;55.46;97478.75;5024277;28;20029;-32
2022/12/21 05:27:11;;;;;;;13.25;8.95;;;;;;;15.77;55.56;97490.34;5015705;28;20034;-32
2022/12/21 05:29:37;;;;;;;12.48;8.60;;;;;;;15.78;55.27;97478.22;5016632;28;20017;-32
2022/12/21 05:32:03;;;;;;;11.57;8.07;;;;;;;15.77;55.36;97479.41;5016322;28;20056;-32
2022/12/21 05:34:28;;;;;;;11.23;8.20;;;;;;;15.75;55.33;97477.09;5016438;28;20116;-32
2022/12/21 05:36:53;;;;;;;13.20;8.60;;;;;;;15.65;55.66;97482.88;4998945;28;20113;-32
2022/12/21 05:39:19;;;;;;;13.02;8.63;;;;;;;15.63;55.85;97475.13;5016443;28;20458;-32
2022/12/21 05:41:44;;;;;;;12.02;8.80;;;;;;;15.79;55.46;97477.00;4993079;28;20065;-32
2022/12/21 05:44:10;;;;;;;12.73;8.90;;;;;;;15.73;55.51;97470.53;5004804;28;20022;-32
2022/12/21 05:46:36;;;;;;;12.52;8.63;;;;;;;15.71;55.60;97470.19;5015894;28;20029;-32
2022/12/21 05:49:01;;;;;;;12.02;8.77;;;;;;;15.77;55.38;97479.41;5016491;28;20021;-32
2022/12/21 05:51:27;;;;;;;11.27;8.10;;;;;;;15.70;55.68;97474.91;5016254;28;20018;-32
2022/12/21 05:53:53;;;;;;;12.32;8.57;;;;;;;15.67;55.70;97480.50;5016118;28;20114;-32
2022/12/21 05:56:19;;;;;;;12.75;8.55;;;;;;;15.68;55.76;97476.56;5016155;28;20036;-32
2022/12/21 05:58:45;;;;;;;11.77;8.25;;;;;;;15.67;55.81;97475.03;5015940;28;20026;-32
2022/12/21 06:01:11;;;;;;;13.05;8.63;;;;;;;15.69;55.80;97472.63;5016018;28;20029;-32
2022/12/21 06:03:37;;;;;;;12.65;9.50;;;;;;;15.73;55.48;97474.03;5015955;28;20022;-32
2022/12/21 06:06:06;;;;;;;13.45;8.82;;;;;;;15.71;55.61;97470.19;5016173;28;20029;-32
2022/12/21 06:08:32;;;;;;;12.68;8.85;;;;;;;15.73;55.57;97467.78;5015766;28;20026;-32
2022/12/21 06:11:03;;;;;;;11.52;8.40;;;;;;;15.66;55.49;97468.00;5015612;28;20036;-32
2022/12/21 06:13:28;;;;;;;12.80;9.07;;;;;;;15.68;55.66;97462.88;5016160;28;20018;-32
2022/12/21 06:15:54;;;;;;;13.55;9.10;;;;;;;15.65;55.77;97458.28;5015567;28;20072;-32
2022/12/21 06:18:19;;;;;;;11.95;8.57;;;;;;;15.66;55.71;97463.31;5015688;28;20037;-32
2022/12/21 06:20:51;;;;;;;11.48;8.25;;;;;;;15.74;55.37;97458.41;5015678;28;20108;-32
2022/12/21 06:23:16;;;;;;;13.68;9.25;;;;;;;15.74;55.38;97458.41;5015515;28;20041;-32
2022/12/21 06:25:42;;;;;;;11.00;7.78;;;;;;;15.71;55.45;97459.25;5015666;28;20472;-32
2022/12/21 06:28:07;;;;;;;12.20;8.90;;;;;;;15.64;55.62;97462.22;5015364;28;20382;-32
2022/12/21 06:30:33;;;;;;;11.05;8.25;;;;;;;15.65;55.81;97456.31;4997801;28;20057;-32
2022/12/21 06:32:58;;;;;;;12.27;7.82;;;;;;;15.68;55.67;97451.94;5015347;28;20112;-32
2022/12/21 06:35:24;;;;;;;13.23;8.38;;;;;;;15.68;55.73;97455.44;4997737;28;20042;-32
2022/12/21 06:37:49;;;;;;;12.05;8.00;;;;;;;15.65;55.62;97453.56;5014514;28;20018;-32
2022/12/21 06:40:15;;;;;;;11.55;7.70;;;;;;;15.66;55.56;97462.53;4997631;28;20030;-32
2022/12/21 06:42:40;;;;;;;12.52;8.13;;;;;;;15.61;55.80;97468.53;5015299;28;20512;-32
2022/12/21 06:45:06;;;;;;;12.98;8.55;;;;;;;15.67;55.79;97464.09;5015638;28;20044;-32
2022/12/21 06:47:31;;;;;;;10.85;7.85;;;;;;;15.68;55.65;97458.19;5015058;28;20021;-32
2022/12/21 06:49:57;;;;;;;17.15;9.10;;;;;;;15.65;55.73;97464.50;5014980;28;20026;-32
2022/12/21 06:52:22;;;;;;;16.52;8.45;;;;;;;15.66;55.65;97468.00;5014761;28;20050;-32
2022/12/21 06:54:48;;;;;;;13.82;8.23;;;;;;;15.68;55.60;97465.63;5012070;28;20024;-32
2022/12/21 06:57:13;;;;;;;13.35;7.57;;;;;;;15.66;55.64;97457.06;5012029;28;20014;-32
2022/12/21 06:59:38;;;;;;;15.40;8.20;;;;;;;15.74;55.50;97463.88;4996933;28;20485;-32
2022/12/21 07:02:04;;;;;;;13.75;8.35;;;;;;;15.73;55.14;97468.56;5014744;28;20593;-32
2022/12/21 07:04:29;;;;;;;11.60;8.18;;;;;;;15.65;55.78;97471.94;5014688;28;20022;-32
2022/12/21 07:06:55;;;;;;;12.50;7.50;;;;;;;15.67;55.53;97469.56;5014715;28;20105;-32
2022/12/21 07:09:20;;;;;;;11.45;7.35;;;;;;;15.67;55.37;97470.31;5015128;28;20470;-32
2022/12/21 07:11:47;;;;;;;14.70;7.65;;;;;;;15.62;55.57;97479.03;5014674;28;20026;-32
2022/12/21 07:14:12;;;;;;;12.70;7.05;;;;;;;15.59;55.47;97462.72;5009246;28;20406;-32
2022/12/21 07:16:38;;;;;;;10.77;7.68;;;;;;;15.65;55.31;97466.47;4994864;28;20033;-32
2022/12/21 07:19:03;;;;;;;11.07;7.15;;;;;;;15.59;55.75;97465.47;4988282;28;20487;-32
2022/12/21 07:21:30;;;;;;;12.20;6.90;;;;;;;15.56;55.55;97464.38;4970649;28;20038;-32
2022/12/21 07:23:56;;;;;;;13.43;7.78;;;;;;;15.63;55.42;97452.47;4968311;28;20059;-32
2022/12/21 07:26:23;;;;;;;8.32;6.45;;;;;;;15.60;55.43;97461.53;4986354;28;21533;-32
2022/12/21 07:28:49;;;;;;;9.43;7.45;;;;;;;15.62;55.33;97453.66;4986348;28;20032;-32
2022/12/21 07:31:17;;;;;;;9.27;6.40;;;;;;;15.61;55.17;97449.41;4986621;28;20030;-32
2022/12/21 07:33:44;;;;;;;7.88;6.07;;;;;;;15.64;55.28;97451.28;4987097;28;20088;-32
2022/12/21 07:36:10;;;;;;;10.70;6.60;;;;;;;15.68;55.18;97449.22;4977425;28;20165;-32
2022/12/21 07:38:38;;;;;;;8.63;6.28;;;;;;;15.57;55.50;97455.00;5011866;28;20030;-32
2022/12/21 07:41:06;;;;;;;7.40;5.78;;;;;;;15.53;55.66;97453.50;5012397;28;20390;-32
2022/12/21 07:43:31;;;;;;;9.02;6.13;;;;;;;15.63;55.29;97457.94;5012103;28;20756;-32
2022/12/21 07:45:57;;;;;;;8.63;6.00;;;;;;;15.62;55.17;97453.66;5012211;28;20037;-32
2022/12/21 07:48:22;;;;;;;7.63;5.28;;;;;;;15.65;55.25;97466.47;5011685;28;20034;-32
2022/12/21 07:50:49;;;;;;;7.10;5.28;;;;;;;15.64;55.22;97464.94;5012139;28;20022;-32
2022/12/21 07:53:16;;;;;;;8.40;5.57;;;;;;;15.53;55.62;97467.19;5012223;28;20028;-32
2022/12/21 07:55:41;;;;;;;8.07;5.57;;;;;;;15.58;55.36;97470.16;5012026;28;20033;-32
2022/12/21 07:58:07;;;;;;;8.63;6.03;;;;;;;15.70;54.81;97468.69;5011969;28;20022;-32
2022/12/21 08:00:33;;;;;;;8.93;5.35;;;;;;;15.60;55.35;97475.22;5011521;28;20112;-32
2022/12/21 08:02:58;;;;;;;6.70;5.35;;;;;;;15.64;55.37;97470.41;5011606;28;20026;-32
2022/12/21 08:05:24;;;;;;;7.95;5.40;;;;;;;15.66;55.26;97468.00;5011857;28;20022;-32
2022/12/21 08:07:49;;;;;;;7.50;5.07;;;;;;;15.58;55.35;97466.69;5012417;28;20029;-32
2022/12/21 08:10:16;;;;;;;6.43;4.82;;;;;;;15.62;55.24;97467.34;5011163;28;20022;-32
2022/12/21 08:12:41;;;;;;;6.88;5.18;;;;;;;15.60;55.31;97464.28;5013644;28;20029;-32
2022/12/21 08:15:07;;;;;;;7.13;5.07;;;;;;;15.59;55.37;97468.97;5010325;28;20482;-32
2022/12/21 08:17:34;;;;;;;6.32;4.82;;;;;;;15.64;55.16;97470.41;5011058;28;20026;-32
2022/12/21 08:19:59;;;;;;;6.75;5.10;;;;;;;15.66;55.12;97471.50;5014163;28;20025;-32
2022/12/21 08:22:25;;;;;;;6.35;4.78;;;;;;;15.60;55.37;97470.50;5009418;28;20386;-32
2022/12/21 08:24:50;;;;;;;5.95;4.30;;;;;;;15.59;55.07;97473.66;5009747;28;20022;-32
2022/12/21 08:27:16;;;;;;;5.88;3.97;;;;;;;15.60;55.19;97464.28;5009819;28;20034;-32
2022/12/21 08:29:41;;;;;;;5.80;4.35;;;;;;;15.65;55.00;97471.94;5009747;28;20029;-31
2022/12/21 08:32:07;;;;;;;5.15;3.92;;;;;;;15.64;55.22;97475.88;5011127;28;20084;-31
2022/12/21 08:34:32;;;;;;;5.35;3.85;;;;;;;15.64;55.04;97465.72;5011305;28;20044;-32
2022/12/21 08:36:58;;;;;;;5.13;4.07;;;;;;;15.65;54.92;97471.94;5011742;28;20021;-32
2022/12/21 08:39:24;;;;;;;5.35;3.75;;;;;;;15.61;55.42;97469.31;5011180;28;20113;-32
2022/12/21 08:41:50;;;;;;;5.10;3.90;;;;;;;15.66;55.00;97468.78;5011114;28;20029;-32
2022/12/21 08:44:15;;;;;;;4.10;3.45;;;;;;;15.54;55.35;97466.75;5011114;28;20084;-32
2022/12/21 08:46:41;;;;;;;6.50;3.60;;;;;;;15.58;55.36;97463.97;5011362;28;20125;-32
2022/12/21 08:49:06;;;;;;;5.28;3.60;;;;;;;15.52;55.71;97473.84;5011279;28;20181;-32
2022/12/21 08:51:32;;;;;;;6.93;3.72;;;;;;;15.61;55.40;97468.53;5011099;28;20037;-32
2022/12/21 08:53:58;;;;;;;6.25;4.97;;;;;;;15.63;55.38;97471.59;5011437;28;20091;-32
2022/12/21 08:56:24;;;;;;;6.95;4.75;;;;;;;15.54;55.54;97480.44;5010910;28;20034;-32
2022/12/21 08:58:50;;;;;;;6.50;4.28;;;;;;;15.68;55.14;97471.09;5011024;28;20026;-32
2022/12/21 09:01:20;;;;;;;4.15;3.70;;;;;;;15.67;55.30;97477.75;4993898;28;20022;-32
2022/12/21 09:03:46;;;;;;;5.00;3.83;;;;;;;15.65;55.37;97485.63;5014897;28;20030;-32
2022/12/21 09:06:11;;;;;;;5.03;3.88;;;;;;;15.60;55.51;97470.50;5014805;28;20029;-32
2022/12/21 09:08:37;;;;;;;4.57;3.53;;;;;;;15.66;55.26;97478.94;5014938;28;20089;-32
2022/12/21 09:11:05;;;;;;;5.22;3.78;;;;;;;15.61;55.23;97485.72;5015035;28;20075;-32
2022/12/21 09:13:31;;;;;;;4.20;3.80;;;;;;;15.68;55.35;97482.03;4997030;28;20060;-32
2022/12/21 09:15:57;;;;;;;4.53;3.58;;;;;;;15.68;55.18;97479.28;5016998;28;20038;-32
2022/12/21 09:18:23;;;;;;;4.80;3.40;;;;;;;15.62;55.40;97472.81;5014247;28;20048;-32
2022/12/21 09:20:48;;;;;;;4.32;3.20;;;;;;;15.68;55.15;97477.31;5014799;28;20433;-32
2022/12/21 09:23:14;;;;;;;4.38;3.08;;;;;;;15.68;55.11;97473.81;4999356;28;20025;-32
2022/12/21 09:25:40;;;;;;;6.13;3.65;;;;;;;15.71;55.27;97462.00;4996969;28;20084;-32
2022/12/21 09:28:05;;;;;;;6.97;3.67;;;;;;;15.59;55.44;97457.25;5014338;28;20040;-32
2022/12/21 09:30:31;;;;;;;4.53;3.10;;;;;;;15.53;55.50;97464.44;5014394;28;20493;-32
2022/12/21 09:32:56;;;;;;;5.95;3.08;;;;;;;15.53;55.63;97475.38;5016933;28;20042;-32
2022/12/21 09:35:22;;;;;;;5.30;2.90;;;;;;;15.55;55.65;97473.03;5015822;28;20040;-32
2022/12/21 09:37:47;;;;;;;4.47;3.28;;;;;;;15.59;55.65;97476.41;5016190;28;20466;-32
2022/12/21 09:40:15;;;;;;;3.45;2.97;;;;;;;15.65;55.23;97482.88;5016000;28;20033;-32
2022/12/21 09:42:57;;;;;;;4.18;2.90;;;;;;;15.66;55.29;97474.25;5015947;28;20505;-32
2022/12/21 09:46:02;;;;;;;5.88;3.10;;;;;;;15.63;55.44;97464.19;5014108;28;20040;-32
2022/12/21 09:48:40;;;;;;;4.15;2.80;;;;;;;15.68;55.24;97465.63;5010175;28;20034;-32
2022/12/21 09:51:15;;;;;;;3.40;2.63;;;;;;;15.66;55.02;97462.53;5014027;28;20061;-32
2022/12/21 09:54:06;;;;;;;3.58;2.67;;;;;;;15.65;55.21;97455.53;5014436;28;20057;-32
2022/12/21 09:56:32;;;;;;;3.60;2.72;;;;;;;15.62;55.42;97445.47;5014016;28;20021;-32
2022/12/21 09:59:04;;;;;;;3.17;2.40;;;;;;;15.56;55.48;97442.53;5013342;28;20105;-32
2022/12/21 10:01:29;;;;;;;3.22;2.53;;;;;;;15.63;55.11;97436.81;5013978;28;20029;-32
2022/12/21 10:04:22;;;;;;;4.10;2.45;;;;;;;15.69;55.19;97428.88;5014018;28;20048;-32
2022/12/21 10:07:19;;;;;;;3.83;2.47;;;;;;;15.69;55.09;97420.66;4996102;28;20116;-32
2022/12/21 10:10:00;;;;;;;4.05;2.80;;;;;;;15.63;55.34;97436.06;5012621;28;20022;-32
2022/12/21 10:12:56;;;;;;;3.97;2.85;;;;;;;15.57;55.79;97426.88;5013045;28;20037;-32
2022/12/21 10:15:31;;;;;;;4.03;2.45;;;;;;;15.68;55.23;97424.59;5009028;28;20034;-32
2022/12/21 10:18:10;;;;;;;3.60;2.78;;;;;;;15.68;55.33;97421.88;5015557;28;20018;-32
2022/12/21 10:20:54;;;;;;;2.92;2.35;;;;;;;15.71;55.24;97412.75;5016076;28;20026;-32
2022/12/21 10:23:27;;;;;;;3.50;2.50;;;;;;;15.63;55.45;97412.22;5014839;28;20049;-32
2022/12/21 10:25:57;;;;;;;4.75;2.40;;;;;;;15.53;56.31;97396.88;5015479;28;20025;-32
2022/12/21 10:28:26;;;;;;;2.90;2.60;;;;;;;15.56;55.94;97393.31;5012717;28;20033;-32
2022/12/21 10:31:04;;;;;;;4.95;3.63;;;;;;;14.30;58.37;97385.34;5015458;28;20026;-33
2022/12/21 10:33:30;;;;;;;4.35;3.03;;;;;;;15.04;56.18;97390.84;4993168;28;20046;-32
2022/12/21 10:36:02;;;;;;;4.30;2.75;;;;;;;15.37;55.04;97394.22;5007154;28;20030;-32
2022/12/21 10:38:32;;;;;;;4.78;3.17;;;;;;;15.29;55.30;97382.72;5009862;28;20088;-32
2022/12/21 10:40:58;;;;;;;5.05;2.75;;;;;;;15.46;54.93;97378.69;5008529;28;20037;-32
2022/12/21 10:43:24;;;;;;;3.47;2.75;;;;;;;15.57;54.79;97380.41;5015123;28;20105;-32
2022/12/21 10:45:49;;;;;;;3.05;2.47;;;;;;;15.60;55.09;97371.31;5015281;28;20032;-32
2022/12/21 10:48:17;;;;;;;3.50;2.78;;;;;;;15.54;54.76;97364.84;5014733;28;20101;-32
2022/12/21 10:50:50;;;;;;;4.60;3.05;;;;;;;15.63;54.65;97370.44;5015447;28;20022;-32
2022/12/21 10:53:25;;;;;;;4.03;3.15;;;;;;;15.67;54.35;97371.09;5014821;28;20026;-32
2022/12/21 10:55:57;;;;;;;4.35;3.00;;;;;;;15.57;54.63;97369.47;5014996;28;20100;-32
2022/12/21 10:58:34;;;;;;;4.30;2.90;;;;;;;15.53;54.97;97369.53;5014939;28;20028;-32
2022/12/21 11:01:06;;;;;;;3.60;2.80;;;;;;;15.61;54.89;97357.19;5015072;28;20033;-32
2022/12/21 11:03:34;;;;;;;5.00;2.90;;;;;;;15.57;54.72;97361.25;5014966;28;20026;-32
2022/12/21 11:06:20;;;;;;;3.92;2.80;;;;;;;15.53;55.31;97350.41;5014967;28;20381;-32
2022/12/21 11:08:53;;;;;;;16.77;8.80;;;;;;;15.43;54.89;97352.25;5014644;28;20129;-32
2022/12/21 11:11:35;;;;;;;6.35;4.32;;;;;;;15.58;54.96;97352.59;5015021;28;20109;-32
2022/12/21 11:14:17;;;;;;;5.03;3.70;;;;;;;15.77;54.45;97348.91;5015099;28;20071;-32
2022/12/21 11:16:46;;;;;;;6.75;4.03;;;;;;;15.68;54.26;97339.81;5014633;28;20026;-32
2022/12/21 11:19:14;;;;;;;6.68;4.38;;;;;;;15.65;54.79;97343.44;4984903;28;20073;-32
2022/12/21 11:21:45;;;;;;;5.13;3.42;;;;;;;15.33;55.91;97331.44;5014755;28;20104;-32
2022/12/21 11:24:13;;;;;;;6.38;3.60;;;;;;;15.69;54.54;97330.41;5014207;28;20022;-32
2022/12/21 11:26:59;;;;;;;5.68;4.10;;;;;;;15.54;54.58;97329.28;5014133;28;20132;-32
2022/12/21 11:29:29;;;;;;;4.35;3.00;;;;;;;15.67;54.35;97325.38;5014540;28;20044;-32
2022/12/21 11:31:56;;;;;;;5.13;3.60;;;;;;;15.75;54.47;97326.69;5009153;28;20050;-32
2022/12/21 11:34:34;;;;;;;5.50;3.97;;;;;;;15.58;54.32;97313.59;5007982;28;20390;-32
2022/12/21 11:37:05;;;;;;;5.20;3.47;;;;;;;15.69;54.76;97317.50;5001825;28;20017;-32
2022/12/21 11:39:30;;;;;;;4.60;3.30;;;;;;;15.84;54.43;97311.56;5014255;28;20025;-32
2022/12/21 11:41:56;;;;;;;5.55;3.25;;;;;;;15.86;54.29;97304.47;4996667;28;20029;-32
2022/12/21 11:44:28;;;;;;;4.85;2.95;;;;;;;15.89;54.31;97308.28;5014148;28;20374;-32
2022/12/21 11:47:28;;;;;;;5.25;3.38;;;;;;;15.90;54.30;97312.56;5013994;28;20041;-32
2022/12/21 11:50:32;;;;;;;4.72;3.67;;;;;;;15.44;54.04;97310.03;4973369;28;20560;-32